Time;durP1;ratioP1;P1;durP2;ratioP2;P2;SDS_P1;SDS_P2;PMS_P1;PMS_P2;Temp;Humidity;BMP_temperature;BMP_pressure;BME280_temperature;BME280_humidity;BME280_pressure;Samples;Min_cycle;Max_cycle;Signal;HPM_P1;HPM_P2
2021/12/25 00:01:41;;;;;;;60.10;25.83;;;;;;;9.23;100.00;99437.81;8307361;28;20125;-66
2021/12/25 00:05:44;;;;;;;52.03;27.45;;;;;;;9.21;100.00;99437.13;8278106;28;20421;-66
2021/12/25 00:09:45;;;;;;;66.30;32.22;;;;;;;9.18;100.00;99442.84;8292440;28;20057;-66
2021/12/25 00:13:45;;;;;;;68.88;31.83;;;;;;;9.12;100.00;99433.50;8283263;28;20053;-66
2021/12/25 00:17:45;;;;;;;79.75;34.92;;;;;;;9.09;100.00;99430.31;8303174;28;20118;-66
2021/12/25 00:21:46;;;;;;;77.93;36.20;;;;;;;9.07;100.00;99430.47;8303095;28;20062;-66
2021/12/25 00:25:52;;;;;;;82.00;34.85;;;;;;;9.02;100.00;99426.53;8308568;28;20039;-66
2021/12/25 00:30:08;;;;;;;89.35;38.40;;;;;;;9.00;100.00;99423.16;8308655;28;20406;-66
2021/12/25 00:34:10;;;;;;;80.32;37.58;;;;;;;8.92;100.00;99425.78;8310562;28;20046;-66
2021/12/25 00:38:10;;;;;;;85.38;38.95;;;;;;;8.89;100.00;99416.19;8310401;28;20045;-66
2021/12/25 00:42:12;;;;;;;89.85;35.70;;;;;;;8.86;100.00;99415.63;8309730;28;20033;-66
2021/12/25 00:46:13;;;;;;;85.25;36.47;;;;;;;8.87;100.00;99428.94;8312522;28;20045;-66
2021/12/25 00:50:14;;;;;;;78.32;34.15;;;;;;;8.80;100.00;99437.81;8315009;28;20042;-66
2021/12/25 00:54:15;;;;;;;65.03;30.13;;;;;;;8.72;100.00;99433.19;8310431;28;20099;-66
2021/12/25 00:58:16;;;;;;;64.80;28.52;;;;;;;8.64;100.00;99427.75;8305970;28;20564;-66
2021/12/25 01:02:16;;;;;;;62.20;26.38;;;;;;;8.62;100.00;99428.91;8289871;28;20379;-66
2021/12/25 01:06:17;;;;;;;54.20;24.80;;;;;;;8.58;100.00;99425.69;8287344;28;20482;-66
2021/12/25 01:10:19;;;;;;;52.47;23.55;;;;;;;8.54;100.00;99428.84;8291880;28;20096;-66
2021/12/25 01:14:33;;;;;;;52.72;22.33;;;;;;;8.45;100.00;99417.13;8292318;28;20241;-65
2021/12/25 01:23:31;;;;;;;47.22;21.23;;;;;;;8.36;100.00;99409.13;8260110;28;20102;-65
2021/12/25 01:28:55;;;;;;;55.67;22.00;;;;;;;8.36;100.00;99409.13;8263856;28;20497;-65
2021/12/25 01:31:49;;;;;;;49.15;20.10;;;;;;;8.33;100.00;99412.13;8268882;28;20049;-65
2021/12/25 01:37:15;;;;;;;45.50;20.20;;;;;;;8.29;100.00;99416.97;8291552;28;20100;-65
2021/12/25 01:41:43;;;;;;;44.20;19.85;;;;;;;8.28;100.00;99404.53;8294257;28;20525;-65
2021/12/25 01:48:52;;;;;;;39.53;19.83;;;;;;;8.18;100.00;99414.50;8284334;28;20046;-65
2021/12/25 01:52:53;;;;;;;37.75;17.77;;;;;;;8.13;100.00;99422.16;8284157;28;20141;-65
2021/12/25 01:56:54;;;;;;;44.85;19.40;;;;;;;8.04;100.00;99418.53;8259807;28;20042;-65
2021/12/25 02:00:56;;;;;;;40.03;18.80;;;;;;;8.08;100.00;99409.16;8286311;28;20370;-65
2021/12/25 02:04:57;;;;;;;42.17;18.75;;;;;;;8.08;100.00;99413.69;8291695;28;20046;-65
2021/12/25 02:08:57;;;;;;;40.28;18.25;;;;;;;8.09;100.00;99405.47;8291752;28;20053;-65
2021/12/25 02:12:58;;;;;;;41.00;18.65;;;;;;;8.06;100.00;99405.75;8275636;28;20069;-65
2021/12/25 02:17:15;;;;;;;43.47;19.60;;;;;;;8.12;100.00;99408.84;8292094;28;20041;-65
2021/12/25 02:21:20;;;;;;;42.92;18.65;;;;;;;8.09;100.00;99416.22;8292269;28;20150;-65
2021/12/25 02:25:21;;;;;;;41.15;18.77;;;;;;;8.11;100.00;99412.56;8268294;28;20038;-65
2021/12/25 02:29:23;;;;;;;44.00;20.83;;;;;;;8.04;100.00;99415.84;8284399;28;20048;-65
2021/12/25 02:33:25;;;;;;;38.05;18.45;;;;;;;8.04;100.00;99407.78;8274129;28;20039;-65
2021/12/25 02:37:26;;;;;;;40.85;19.33;;;;;;;8.05;100.00;99408.59;8274199;28;20730;-65
2021/12/25 02:41:26;;;;;;;42.13;19.40;;;;;;;8.00;100.00;99403.69;8280677;28;20043;-65
2021/12/25 02:45:27;;;;;;;40.15;19.85;;;;;;;8.03;100.00;99406.06;8270191;28;20042;-65
2021/12/25 02:49:27;;;;;;;45.92;19.50;;;;;;;8.02;100.00;99403.53;8275984;28;20045;-65
2021/12/25 02:53:28;;;;;;;35.67;17.15;;;;;;;7.98;100.00;99397.63;8271518;28;20038;-65
2021/12/25 02:57:28;;;;;;;35.78;16.90;;;;;;;7.92;100.00;99409.00;8257319;28;20428;-65
2021/12/25 03:01:29;;;;;;;29.60;15.90;;;;;;;7.81;100.00;99406.50;8275016;28;20049;-65
2021/12/25 03:05:30;;;;;;;28.95;16.10;;;;;;;7.72;100.00;99401.19;8290707;28;20026;-65
2021/12/25 03:09:30;;;;;;;25.50;14.13;;;;;;;7.73;100.00;99401.03;8290110;28;20034;-65
2021/12/25 03:13:37;;;;;;;23.70;14.25;;;;;;;7.71;100.00;99411.09;8290498;28;20494;-65
2021/12/25 03:17:39;;;;;;;25.92;13.55;;;;;;;7.71;100.00;99411.09;8290178;28;20045;-65
2021/12/25 03:21:39;;;;;;;29.40;14.48;;;;;;;7.67;100.00;99404.31;8295742;28;20034;-65
2021/12/25 03:25:41;;;;;;;23.95;13.52;;;;;;;7.61;100.00;99410.31;8280239;28;20429;-65
2021/12/25 03:29:42;;;;;;;24.50;13.13;;;;;;;7.64;100.00;99412.69;8288311;28;20042;-65
2021/12/25 03:33:45;;;;;;;22.38;13.70;;;;;;;7.62;100.00;99406.59;8290474;28;20088;-65
2021/12/25 03:37:45;;;;;;;22.23;13.23;;;;;;;7.57;100.00;99406.19;8289460;28;20041;-65
2021/12/25 03:41:46;;;;;;;22.17;13.13;;;;;;;7.58;100.00;99410.59;8290797;28;20050;-64
2021/12/25 03:45:47;;;;;;;26.02;13.85;;;;;;;7.59;100.00;99406.91;8291934;28;20069;-64
2021/12/25 03:58:31;;;;;;;23.80;12.90;;;;;;;7.47;100.00;99397.34;8290376;28;20034;-64
2021/12/25 04:02:36;;;;;;;21.30;11.80;;;;;;;7.47;100.00;99408.09;8289925;28;20038;-64
2021/12/25 04:06:45;;;;;;;22.38;12.45;;;;;;;7.47;100.00;99401.84;8293180;28;20125;-64
2021/12/25 04:10:49;;;;;;;23.23;12.35;;;;;;;7.46;100.00;99402.84;8287633;28;20042;-64
2021/12/25 04:14:49;;;;;;;22.27;12.90;;;;;;;7.44;100.00;99405.69;8282975;28;20065;-64
2021/12/25 04:18:50;;;;;;;24.05;12.45;;;;;;;7.39;100.00;99404.44;8290577;28;20046;-65
2021/12/25 04:22:58;;;;;;;24.15;12.35;;;;;;;7.37;100.00;99403.75;8289012;28;20034;-64
2021/12/25 04:26:58;;;;;;;21.70;11.65;;;;;;;7.32;100.00;99401.50;8287883;28;20456;-65
2021/12/25 04:31:11;;;;;;;24.40;12.48;;;;;;;7.24;100.00;99412.16;8274135;28;20103;-64
2021/12/25 05:02:20;;;;;;;25.55;12.85;;;;;;;6.97;100.00;99425.53;8365270;28;20116;-64
2021/12/25 05:05:31;;;;;;;25.25;12.85;;;;;;;6.91;100.00;99426.09;8370950;28;20417;-64
2021/12/25 05:09:31;;;;;;;24.13;13.07;;;;;;;6.85;100.00;99421.31;8353553;28;20037;-64
2021/12/25 05:13:32;;;;;;;24.13;12.82;;;;;;;6.80;100.00;99412.81;8383191;28;20033;-64
2021/12/25 05:17:33;;;;;;;29.00;13.93;;;;;;;6.75;100.00;99412.41;8386912;28;20034;-64
2021/12/25 05:21:33;;;;;;;25.23;13.52;;;;;;;6.76;100.00;99416.78;8385070;28;20040;-64
2021/12/25 05:25:34;;;;;;;24.88;12.48;;;;;;;6.68;100.00;99419.31;8383762;28;20452;-64
2021/12/25 05:29:37;;;;;;;27.95;13.77;;;;;;;6.73;100.00;99424.28;8374698;28;20359;-64
2021/12/25 05:33:38;;;;;;;25.65;13.02;;;;;;;6.64;100.00;99422.44;8404936;27;20037;-64
2021/12/25 05:37:39;;;;;;;24.83;12.70;;;;;;;6.56;100.00;99425.84;8385864;27;20028;-63
2021/12/25 05:41:39;;;;;;;25.20;11.25;;;;;;;6.56;100.00;99428.53;8393406;28;20048;-63
2021/12/25 05:45:40;;;;;;;26.85;13.50;;;;;;;6.57;100.00;99432.94;8384538;28;20040;-63
2021/12/25 05:49:40;;;;;;;26.50;13.43;;;;;;;6.51;100.00;99441.53;8414914;27;20044;-64
2021/12/25 05:53:41;;;;;;;28.20;13.20;;;;;;;6.47;100.00;99448.19;8394922;27;20068;-64
2021/12/25 05:57:41;;;;;;;28.38;13.75;;;;;;;6.45;100.00;99450.16;8408848;27;20510;-63
2021/12/25 06:01:42;;;;;;;24.30;12.02;;;;;;;6.41;100.00;99448.75;8381432;27;20056;-64
2021/12/25 06:05:42;;;;;;;26.08;13.40;;;;;;;6.37;100.00;99450.00;8361481;28;20119;-63
2021/12/25 06:09:42;;;;;;;28.95;13.02;;;;;;;6.28;100.00;99458.88;8372667;28;20045;-63
2021/12/25 06:13:54;;;;;;;26.90;11.98;;;;;;;6.30;100.00;99464.97;8383055;28;20072;-64
2021/12/25 06:17:56;;;;;;;26.85;13.55;;;;;;;6.17;100.00;99472.44;8375986;28;20115;-64
2021/12/25 06:21:57;;;;;;;27.70;13.32;;;;;;;6.11;100.00;99473.00;8384691;28;20042;-64
2021/12/25 06:25:57;;;;;;;25.63;12.65;;;;;;;6.07;100.00;99477.78;8391785;28;20480;-64
2021/12/25 06:29:57;;;;;;;29.67;13.65;;;;;;;6.02;100.00;99479.19;8390192;28;20484;-64
2021/12/25 06:33:58;;;;;;;31.83;14.40;;;;;;;5.96;100.00;99495.84;8391439;28;20044;-63
2021/12/25 06:37:59;;;;;;;33.63;16.77;;;;;;;5.95;100.00;99499.50;8371993;28;20454;-63
2021/12/25 06:42:00;;;;;;;35.88;16.75;;;;;;;5.83;100.00;99495.22;8366315;28;20039;-63
2021/12/25 06:46:00;;;;;;;41.28;18.13;;;;;;;5.71;100.00;99505.16;8375220;28;20035;-63
2021/12/25 06:50:00;;;;;;;39.00;19.05;;;;;;;5.62;100.00;99507.81;8392172;28;20047;-63
2021/12/25 06:54:03;;;;;;;43.10;19.98;;;;;;;5.59;100.00;99505.41;8394039;28;20033;-63
2021/12/25 06:58:04;;;;;;;44.92;19.67;;;;;;;5.58;100.00;99501.03;8392541;28;20108;-63
2021/12/25 07:02:05;;;;;;;44.58;19.42;;;;;;;5.52;100.00;99513.09;8390812;28;20090;-63
2021/12/25 07:06:05;;;;;;;42.50;19.40;;;;;;;5.49;100.00;99518.75;8388874;28;20115;-63
2021/12/25 07:10:06;;;;;;;46.65;20.38;;;;;;;5.53;100.00;99524.69;8390005;28;20032;-64
2021/12/25 07:14:09;;;;;;;49.58;21.25;;;;;;;5.45;100.00;99521.81;8389253;28;20041;-63
2021/12/25 07:18:09;;;;;;;44.58;20.17;;;;;;;5.41;100.00;99536.47;8389702;28;20028;-64
2021/12/25 07:22:10;;;;;;;43.92;20.40;;;;;;;5.41;100.00;99536.47;8389660;28;20128;-64
2021/12/25 07:26:10;;;;;;;42.05;19.98;;;;;;;5.37;100.00;99543.91;8390139;28;21541;-64
2021/12/25 07:30:11;;;;;;;42.75;19.80;;;;;;;5.32;100.00;99556.00;8376158;28;20048;-63
2021/12/25 07:34:11;;;;;;;41.78;20.00;;;;;;;5.31;100.00;99562.38;8372298;28;20045;-64
2021/12/25 07:38:12;;;;;;;45.50;20.63;;;;;;;5.27;100.00;99560.91;8369808;28;20040;-64
2021/12/25 07:42:13;;;;;;;37.30;18.88;;;;;;;5.23;100.00;99564.84;8371445;28;20536;-63
2021/12/25 07:46:13;;;;;;;43.55;20.23;;;;;;;5.16;100.00;99571.69;8376052;28;20063;-63
2021/12/25 07:50:14;;;;;;;40.70;18.75;;;;;;;5.24;100.00;99572.75;8383580;28;20036;-63
2021/12/25 07:54:14;;;;;;;37.03;18.20;;;;;;;5.12;100.00;99572.94;8369320;28;20047;-63
2021/12/25 07:58:15;;;;;;;35.28;18.17;;;;;;;5.15;100.00;99580.69;8359859;28;20039;-62
2021/12/25 08:02:16;;;;;;;35.72;18.35;;;;;;;5.14;100.00;99581.69;8364344;28;20044;-62
2021/12/25 08:06:17;;;;;;;36.45;18.33;;;;;;;5.19;100.00;99584.84;8395502;28;20123;-62
2021/12/25 08:10:19;;;;;;;33.85;16.85;;;;;;;5.13;100.00;99585.34;8397868;28;20109;-62
2021/12/25 08:14:21;;;;;;;36.40;17.08;;;;;;;5.18;100.00;99589.34;8390967;28;20044;-62
2021/12/25 08:18:21;;;;;;;31.77;17.13;;;;;;;5.13;100.00;99588.03;8380731;28;20045;-62
2021/12/25 08:22:22;;;;;;;32.38;17.27;;;;;;;5.18;100.00;99599.19;8389712;28;20036;-62
2021/12/25 08:26:22;;;;;;;31.70;16.88;;;;;;;5.14;100.00;99593.25;8376674;28;20037;-62
2021/12/25 08:30:26;;;;;;;29.45;15.73;;;;;;;5.07;100.00;99599.25;8384085;28;20037;-62
2021/12/25 08:34:26;;;;;;;27.20;14.73;;;;;;;5.02;100.00;99605.00;8398712;28;20492;-62
2021/12/25 08:38:27;;;;;;;25.67;14.10;;;;;;;4.97;100.00;99601.84;8384185;28;20502;-61
2021/12/25 08:42:27;;;;;;;25.15;13.98;;;;;;;4.97;100.00;99607.19;8380615;28;20066;-62
2021/12/25 08:46:44;;;;;;;25.58;13.98;;;;;;;4.99;100.00;99615.09;8390521;28;20028;-61
2021/12/25 08:50:48;;;;;;;26.13;14.07;;;;;;;4.99;100.00;99617.78;8368767;28;20348;-62
2021/12/25 08:54:50;;;;;;;24.63;13.50;;;;;;;4.96;100.00;99615.38;8387638;28;20148;-62
2021/12/25 08:58:50;;;;;;;25.35;14.57;;;;;;;4.97;100.00;99625.94;8387362;28;20040;-62
2021/12/25 09:02:52;;;;;;;24.85;12.82;;;;;;;4.93;100.00;99632.53;8395199;28;20548;-62
2021/12/25 09:06:52;;;;;;;20.85;12.07;;;;;;;4.85;100.00;99629.63;8357722;28;20121;-62
2021/12/25 09:10:54;;;;;;;20.98;12.73;;;;;;;4.84;100.00;99635.13;8379647;28;20036;-62
2021/12/25 09:14:54;;;;;;;20.25;11.82;;;;;;;4.81;100.00;99638.06;8393751;28;20116;-62
2021/12/25 09:18:55;;;;;;;21.00;11.38;;;;;;;4.88;100.00;99644.63;8396938;28;20036;-61
2021/12/25 09:22:57;;;;;;;22.45;11.45;;;;;;;4.87;100.00;99650.94;8383987;28;20124;-61
2021/12/25 09:26:58;;;;;;;20.10;11.32;;;;;;;4.87;100.00;99643.75;8382210;28;20046;-61
2021/12/25 09:30:59;;;;;;;20.45;11.15;;;;;;;4.88;100.00;99649.97;8395103;28;20037;-61
2021/12/25 09:35:00;;;;;;;21.05;11.75;;;;;;;4.95;100.00;99657.38;8384552;28;20041;-61
2021/12/25 09:39:04;;;;;;;19.23;11.02;;;;;;;5.01;100.00;99656.00;8400922;28;20052;-61
2021/12/25 09:43:04;;;;;;;14.55;9.40;;;;;;;5.06;100.00;99664.53;8388300;28;20032;-61
2021/12/25 09:47:05;;;;;;;17.52;10.50;;;;;;;5.05;100.00;99668.16;8418663;28;20043;-61
2021/12/25 09:51:06;;;;;;;17.85;9.88;;;;;;;5.11;100.00;99670.34;8415731;28;20037;-61
2021/12/25 09:55:07;;;;;;;14.27;9.10;;;;;;;5.12;100.00;99678.25;8383600;28;20033;-63
2021/12/25 09:59:10;;;;;;;15.05;9.00;;;;;;;5.13;100.00;99676.44;8347738;28;20044;-60
2021/12/25 10:03:11;;;;;;;16.13;9.07;;;;;;;5.18;100.00;99684.91;8406130;28;20048;-60
2021/12/25 10:07:30;;;;;;;16.08;7.97;;;;;;;5.22;100.00;99684.53;8392315;28;20057;-60
2021/12/25 10:11:30;;;;;;;11.27;7.13;;;;;;;5.23;100.00;99683.59;8375093;28;20097;-60
2021/12/25 10:15:31;;;;;;;8.65;5.65;;;;;;;5.27;100.00;99684.16;8377098;28;20090;-60
2021/12/25 10:19:31;;;;;;;7.82;5.65;;;;;;;5.31;100.00;99690.97;8382311;28;20745;-61
2021/12/25 10:23:35;;;;;;;7.60;5.15;;;;;;;5.30;100.00;99683.91;8408724;28;20040;-61
2021/12/25 10:27:37;;;;;;;6.18;4.78;;;;;;;5.30;100.00;99675.84;8391919;28;20028;-63
2021/12/25 10:31:37;;;;;;;5.30;4.35;;;;;;;5.37;100.00;99669.03;8408725;28;20056;-63
2021/12/25 10:35:38;;;;;;;6.95;4.85;;;;;;;5.41;100.00;99665.97;8386838;28;20037;-63
2021/12/25 10:39:39;;;;;;;6.30;4.05;;;;;;;5.45;100.00;99669.22;8392243;28;20081;-63
2021/12/25 10:43:42;;;;;;;4.53;3.35;;;;;;;5.47;100.00;99672.63;8394584;28;20154;-64
2021/12/25 10:47:42;;;;;;;4.47;3.60;;;;;;;5.39;100.00;99672.41;8403117;28;20056;-64
2021/12/25 10:51:43;;;;;;;4.25;3.00;;;;;;;5.37;100.00;99674.41;8405092;28;20087;-63
2021/12/25 10:55:44;;;;;;;3.03;2.53;;;;;;;5.33;100.00;99678.28;8407710;28;20043;-63
2021/12/25 10:59:46;;;;;;;2.97;2.47;;;;;;;5.29;100.00;99671.50;8408673;28;20055;-63
2021/12/25 11:03:47;;;;;;;2.88;2.50;;;;;;;5.33;100.00;99672.94;8405450;28;20097;-61
2021/12/25 11:08:07;;;;;;;5.03;2.35;;;;;;;5.40;100.00;99679.50;8405849;28;20032;-61
2021/12/25 11:12:19;;;;;;;4.50;3.28;;;;;;;5.37;100.00;99677.91;8405277;28;20046;-64
2021/12/25 11:16:27;;;;;;;2.97;2.30;;;;;;;5.46;100.00;99668.25;8391226;28;20040;-63
2021/12/25 11:20:31;;;;;;;2.95;1.85;;;;;;;5.51;100.00;99676.75;8392413;28;20090;-64
2021/12/25 11:24:42;;;;;;;3.00;2.25;;;;;;;5.60;100.00;99681.34;8403395;28;20440;-64
2021/12/25 11:28:43;;;;;;;5.13;3.08;;;;;;;5.45;100.00;99682.63;8387786;28;20044;-64
2021/12/25 11:32:45;;;;;;;3.60;2.25;;;;;;;5.49;100.00;99686.75;8400484;28;20086;-64
2021/12/25 11:36:48;;;;;;;2.35;1.55;;;;;;;5.43;100.00;99700.69;8396476;28;20052;-64
2021/12/25 11:40:53;;;;;;;2.25;1.77;;;;;;;5.47;100.00;99696.75;8406832;28;20492;-64
2021/12/25 11:44:55;;;;;;;;;;;;;;;5.46;100.00;99711.16;8395221;28;20036;-64
2021/12/25 11:49:05;;;;;;;2.30;1.60;;;;;;;5.38;100.00;99697.53;8403026;28;20011;-63
2021/12/25 11:53:46;;;;;;;1.90;1.70;;;;;;;5.34;100.00;99702.28;8404624;28;20491;-63
2021/12/25 11:57:50;;;;;;;2.22;1.70;;;;;;;5.34;100.00;99691.56;8405503;28;20110;-63
2021/12/25 12:01:53;;;;;;;;;;;;;;;5.37;100.00;99679.75;8403336;28;20114;-63
2021/12/25 12:05:53;;;;;;;2.00;1.38;;;;;;;5.36;100.00;99678.03;8402838;28;19916;-63
2021/12/25 12:09:56;;;;;;;2.03;1.40;;;;;;;5.37;100.00;99677.06;8388213;28;20081;-63
2021/12/25 12:14:18;;;;;;;1.75;1.35;;;;;;;5.37;100.00;99680.59;8403036;28;20040;-63
2021/12/25 12:22:50;;;;;;;1.50;1.38;;;;;;;5.38;100.00;99676.94;8411074;27;20406;-62
2021/12/25 12:26:53;;;;;;;2.38;1.90;;;;;;;5.42;100.00;99683.75;8400522;28;20041;-62
2021/12/25 12:30:53;;;;;;;1.35;1.20;;;;;;;5.40;100.00;99680.31;8417940;27;20071;-62
2021/12/25 12:34:54;;;;;;;1.92;1.42;;;;;;;5.36;100.00;99668.16;8398522;28;20052;-62
2021/12/25 12:39:13;;;;;;;1.55;1.38;;;;;;;5.36;100.00;99681.56;8399302;28;20045;-62
2021/12/25 12:43:14;;;;;;;1.85;1.40;;;;;;;5.29;100.00;99676.84;8400020;28;20094;-62
2021/12/25 12:47:17;;;;;;;1.75;1.52;;;;;;;5.31;100.00;99688.31;8400159;28;20492;-62
2021/12/25 12:51:19;;;;;;;2.35;1.83;;;;;;;5.22;100.00;99687.22;8399134;28;20032;-62
2021/12/25 12:55:29;;;;;;;1.90;1.70;;;;;;;5.24;100.00;99696.00;8396858;28;20048;-62
2021/12/25 12:59:48;;;;;;;2.20;2.00;;;;;;;5.23;100.00;99688.06;8398312;28;20102;-62
2021/12/25 13:03:57;;;;;;;2.35;1.80;;;;;;;5.20;100.00;99688.31;8365824;28;20037;-62
2021/12/25 13:08:00;;;;;;;2.17;1.98;;;;;;;5.15;100.00;99696.75;8403586;27;20104;-62
2021/12/25 13:12:09;;;;;;;1.70;1.25;;;;;;;5.12;98.89;99701.53;8415454;27;20042;-62
2021/12/25 13:16:14;;;;;;;1.35;1.25;;;;;;;5.17;98.89;99701.97;8412144;28;20032;-62
2021/12/25 13:20:15;;;;;;;1.80;1.58;;;;;;;5.27;100.00;99713.63;8418410;28;20096;-62
2021/12/25 13:24:16;;;;;;;2.47;1.95;;;;;;;5.28;100.00;99715.34;8399060;28;20044;-62
2021/12/25 13:28:19;;;;;;;2.63;1.95;;;;;;;5.37;100.00;99711.91;8380449;28;20488;-62
2021/12/25 13:32:25;;;;;;;3.08;2.40;;;;;;;5.35;100.00;99719.22;8368803;28;20392;-62
2021/12/25 13:36:29;;;;;;;2.63;2.20;;;;;;;5.38;100.00;99725.19;8378634;28;20025;-62
2021/12/25 13:40:29;;;;;;;2.70;2.45;;;;;;;5.29;100.00;99725.94;8375401;28;20045;-62
2021/12/25 13:44:33;;;;;;;2.47;2.28;;;;;;;5.21;99.98;99727.53;8378237;28;20551;-62
2021/12/25 13:48:39;;;;;;;2.17;1.77;;;;;;;5.16;99.81;99719.88;8378557;28;20036;-62
2021/12/25 13:52:46;;;;;;;1.92;1.73;;;;;;;5.11;98.42;99727.44;8378807;28;20033;-62
2021/12/25 13:56:51;;;;;;;3.78;2.10;;;;;;;5.16;99.54;99725.22;8376911;28;20037;-62
2021/12/25 14:00:52;;;;;;;2.20;2.00;;;;;;;5.12;97.48;99717.59;8389158;28;20403;-62
2021/12/25 14:04:53;;;;;;;3.50;2.22;;;;;;;5.16;99.28;99713.69;8396986;28;20138;-62
2021/12/25 14:08:56;;;;;;;2.63;2.05;;;;;;;5.11;96.94;99726.59;8391389;28;20051;-62
2021/12/25 14:13:01;;;;;;;2.85;2.42;;;;;;;5.14;97.57;99732.56;8382757;28;20052;-62
2021/12/25 14:17:02;;;;;;;2.63;2.42;;;;;;;5.08;96.52;99729.53;8355219;28;20458;-62
2021/12/25 14:21:22;;;;;;;3.05;1.90;;;;;;;5.04;96.61;99731.63;8374061;28;20109;-63
2021/12/25 14:25:25;;;;;;;2.55;2.03;;;;;;;5.03;97.17;99729.06;8373358;28;20033;-63
2021/12/25 14:29:28;;;;;;;1.90;1.70;;;;;;;4.94;95.82;99729.81;8374183;28;20085;-63
2021/12/25 14:33:30;;;;;;;1.55;1.20;;;;;;;4.85;95.57;99725.19;8373275;28;20041;-63
2021/12/25 14:37:34;;;;;;;2.53;2.33;;;;;;;4.80;95.86;99727.38;8372741;28;20041;-63
2021/12/25 14:41:37;;;;;;;3.55;1.67;;;;;;;4.76;95.91;99728.63;8374903;28;20045;-63
2021/12/25 14:45:40;;;;;;;2.80;1.90;;;;;;;4.75;96.45;99725.06;8371743;28;20456;-63
2021/12/25 14:49:45;;;;;;;1.50;1.35;;;;;;;4.66;95.61;99741.03;8415067;28;20093;-63
2021/12/25 14:53:51;;;;;;;1.85;1.50;;;;;;;4.66;95.67;99746.41;8397557;28;20036;-63
2021/12/25 14:58:06;;;;;;;2.13;1.67;;;;;;;4.64;95.30;99742.97;8407220;28;20047;-63
2021/12/25 15:02:06;;;;;;;2.28;1.70;;;;;;;4.62;95.96;99745.78;8367252;28;20125;-63
2021/12/25 15:06:17;;;;;;;3.90;2.28;;;;;;;4.57;95.12;99744.47;8354905;28;20049;-63
2021/12/25 15:10:18;;;;;;;2.30;1.83;;;;;;;4.51;95.16;99750.28;8339256;28;20033;-63
2021/12/25 15:14:25;;;;;;;2.67;2.05;;;;;;;4.51;95.29;99752.97;8337841;28;20045;-63
2021/12/25 15:18:30;;;;;;;2.63;1.70;;;;;;;4.51;95.58;99769.03;8337653;28;20096;-63
2021/12/25 15:22:31;;;;;;;2.28;2.00;;;;;;;4.46;94.36;99781.91;8371323;28;20037;-63
2021/12/25 15:26:39;;;;;;;1.88;1.40;;;;;;;4.45;93.38;99774.84;8372870;28;20037;-63
2021/12/25 15:30:40;;;;;;;2.70;2.10;;;;;;;4.41;93.71;99789.41;8371387;28;20025;-63
2021/12/25 15:34:50;;;;;;;7.30;4.63;;;;;;;4.38;93.48;99784.31;8370176;28;20127;-63
2021/12/25 15:38:51;;;;;;;8.60;6.57;;;;;;;4.33;93.27;99778.50;8370834;28;20047;-63
2021/12/25 15:42:53;;;;;;;2.35;1.73;;;;;;;4.30;93.76;99786.75;8370219;28;20047;-63
2021/12/25 15:46:53;;;;;;;2.92;2.58;;;;;;;4.26;93.17;99795.97;8381284;28;20036;-63
2021/12/25 15:50:54;;;;;;;2.85;2.55;;;;;;;4.23;93.49;99790.84;8367209;28;20562;-63
2021/12/25 15:54:54;;;;;;;2.58;2.08;;;;;;;4.24;93.70;99804.09;8361571;28;20791;-63
2021/12/25 15:58:55;;;;;;;3.13;2.78;;;;;;;4.20;93.45;99801.81;8392769;28;20040;-63
2021/12/25 16:02:55;;;;;;;4.20;2.60;;;;;;;4.17;93.42;99799.38;8374232;28;20041;-63
2021/12/25 16:06:56;;;;;;;2.95;2.30;;;;;;;4.17;93.72;99802.06;8370134;28;20722;-63
2021/12/25 16:10:58;;;;;;;3.40;2.40;;;;;;;4.11;93.92;99807.88;8370345;28;20040;-63
2021/12/25 16:14:58;;;;;;;2.65;2.45;;;;;;;4.08;93.92;99809.81;8369831;28;20041;-63
2021/12/25 16:18:58;;;;;;;3.17;2.88;;;;;;;4.07;93.25;99810.78;8366637;28;20128;-63
2021/12/25 16:22:59;;;;;;;4.03;3.08;;;;;;;4.01;93.62;99824.63;8336535;28;20055;-63
2021/12/25 16:27:00;;;;;;;4.55;2.97;;;;;;;4.00;93.43;99814.88;8334905;28;20037;-63
2021/12/25 16:31:00;;;;;;;4.25;2.97;;;;;;;3.97;93.34;99816.94;8360064;28;20075;-63
2021/12/25 16:35:01;;;;;;;4.60;3.38;;;;;;;3.99;94.32;99814.97;8417973;28;20050;-63
2021/12/25 16:39:06;;;;;;;5.43;3.50;;;;;;;3.96;94.71;99821.44;8371892;28;20052;-63
2021/12/25 16:43:07;;;;;;;3.20;2.70;;;;;;;3.94;93.98;99838.56;8368971;28;20037;-63
2021/12/25 16:47:09;;;;;;;3.90;2.88;;;;;;;3.90;93.63;99832.59;8369314;28;20120;-63
2021/12/25 16:51:10;;;;;;;3.35;2.65;;;;;;;3.87;93.87;99829.28;8366819;28;20036;-63
2021/12/25 16:55:12;;;;;;;3.58;3.15;;;;;;;3.87;94.16;99827.47;8368858;28;20048;-63
2021/12/25 16:59:12;;;;;;;7.45;4.15;;;;;;;3.83;94.51;99826.00;8366358;28;20052;-63
2021/12/25 17:03:13;;;;;;;6.70;3.75;;;;;;;3.85;94.58;99832.06;8366650;28;20052;-63
2021/12/25 17:07:13;;;;;;;6.80;4.72;;;;;;;3.84;95.02;99830.38;8369958;28;20051;-63
2021/12/25 17:11:15;;;;;;;6.15;4.68;;;;;;;3.86;94.13;99836.47;8373933;28;20037;-63
2021/12/25 17:15:20;;;;;;;8.00;5.45;;;;;;;3.81;93.55;99838.63;8368770;28;20397;-63
2021/12/25 17:19:21;;;;;;;11.45;6.65;;;;;;;3.77;94.04;99847.84;8353324;28;20068;-63
2021/12/25 17:23:25;;;;;;;9.23;5.95;;;;;;;3.69;92.85;99844.88;8349800;28;20500;-63
2021/12/25 17:27:25;;;;;;;;;;;;;;;3.74;92.27;99856.09;8361919;28;20087;-63
2021/12/25 17:31:26;;;;;;;6.97;4.60;;;;;;;3.71;93.01;99842.97;8360673;28;19951;-63
2021/12/25 17:35:28;;;;;;;7.13;5.35;;;;;;;3.67;92.38;99835.28;8371684;28;20045;-63
2021/12/25 17:39:28;;;;;;;9.48;6.40;;;;;;;3.61;92.90;99836.59;8372880;28;20048;-63
2021/12/25 17:43:31;;;;;;;8.65;4.88;;;;;;;3.67;92.63;99848.63;8362733;28;20040;-63
2021/12/25 17:47:31;;;;;;;8.30;5.68;;;;;;;3.62;93.10;99838.28;8365977;28;20040;-63
2021/12/25 17:51:31;;;;;;;9.90;6.60;;;;;;;3.61;93.27;99843.75;8362239;28;20086;-63
2021/12/25 17:55:33;;;;;;;8.25;4.75;;;;;;;3.54;91.70;99847.84;8349251;28;20037;-63
2021/12/25 17:59:36;;;;;;;6.20;4.75;;;;;;;3.52;91.89;99847.97;8350549;28;20040;-63
2021/12/25 18:03:36;;;;;;;5.53;4.85;;;;;;;3.49;92.29;99844.66;8352756;28;20100;-63
2021/12/25 18:07:37;;;;;;;6.85;4.70;;;;;;;3.52;92.06;99836.41;8369133;28;20583;-63
2021/12/25 18:11:38;;;;;;;9.00;4.60;;;;;;;3.51;92.26;99835.53;8348529;28;20048;-63
2021/12/25 18:15:39;;;;;;;9.73;5.10;;;;;;;3.49;92.37;99826.81;8355740;28;20037;-63
2021/12/25 18:19:41;;;;;;;7.22;5.20;;;;;;;3.48;93.60;99829.59;8352381;28;20483;-63
2021/12/25 18:23:41;;;;;;;6.38;5.50;;;;;;;3.39;94.10;99836.44;8359203;28;20140;-63
2021/12/25 18:27:43;;;;;;;6.00;4.90;;;;;;;3.43;94.13;99831.75;8360747;28;20044;-64
2021/12/25 18:31:44;;;;;;;11.52;5.97;;;;;;;3.38;94.26;99821.41;8368322;28;20041;-64
2021/12/25 18:35:45;;;;;;;7.65;5.93;;;;;;;3.35;94.22;99824.28;8350788;28;20051;-64
2021/12/25 18:39:45;;;;;;;7.50;5.75;;;;;;;3.37;94.63;99822.38;8358619;28;20042;-64
2021/12/25 18:43:46;;;;;;;9.55;6.53;;;;;;;3.35;94.99;99829.63;8351170;28;20045;-64
2021/12/25 18:47:48;;;;;;;8.55;6.50;;;;;;;3.35;94.57;99824.28;8376731;28;20041;-64
2021/12/25 18:51:50;;;;;;;10.20;6.10;;;;;;;3.38;95.16;99832.06;8346941;28;20613;-64
2021/12/25 18:55:51;;;;;;;12.40;7.28;;;;;;;3.34;94.82;99838.63;8352635;28;20036;-64
2021/12/25 18:59:52;;;;;;;7.68;5.47;;;;;;;3.38;95.48;99848.09;8359936;28;20455;-63
2021/12/25 19:03:52;;;;;;;5.60;5.05;;;;;;;3.42;95.58;99838.91;8352262;28;20641;-64
2021/12/25 19:07:53;;;;;;;6.20;5.28;;;;;;;3.38;95.32;99840.09;8346985;28;20056;-63
2021/12/25 19:11:54;;;;;;;7.57;5.32;;;;;;;3.36;96.02;99842.00;8352879;28;20041;-63
2021/12/25 19:15:56;;;;;;;5.57;5.05;;;;;;;3.32;95.86;99839.69;8355467;28;20401;-63
2021/12/25 19:19:59;;;;;;;5.88;5.25;;;;;;;3.34;95.62;99843.97;8362060;28;20357;-64
2021/12/25 19:24:00;;;;;;;6.88;5.00;;;;;;;3.34;95.67;99838.63;8336481;28;20048;-64
2021/12/25 19:28:00;;;;;;;8.48;5.78;;;;;;;3.36;96.15;99844.69;8339909;28;20068;-65
2021/12/25 19:32:01;;;;;;;12.43;8.02;;;;;;;3.37;96.04;99843.75;8340263;28;20051;-64
2021/12/25 19:36:03;;;;;;;12.23;6.30;;;;;;;3.33;96.59;99834.22;8340191;28;20488;-65
2021/12/25 19:40:09;;;;;;;11.32;7.28;;;;;;;3.40;96.53;99838.19;8357052;28;20036;-65
2021/12/25 19:44:09;;;;;;;9.43;7.30;;;;;;;3.38;97.14;99837.41;8342455;28;20102;-65